createdAt,value
2019-06-07T00:01:52.809Z,17.20
2019-06-07T00:03:56.979Z,17.30
2019-06-07T00:06:02.834Z,17.20
2019-06-07T00:08:11.282Z,17.10
2019-06-07T00:10:31.236Z,17.10
2019-06-07T00:12:21.615Z,17.10
2019-06-07T00:14:25.252Z,17.00
2019-06-07T00:16:29.428Z,16.90
2019-06-07T00:18:33.576Z,17.00
2019-06-07T00:20:37.773Z,17.00
2019-06-07T00:22:41.951Z,16.90
2019-06-07T00:24:46.112Z,16.80
2019-06-07T00:26:58.274Z,16.80
2019-06-07T00:28:57.210Z,16.70
2019-06-07T00:31:01.467Z,16.80
2019-06-07T00:33:06.821Z,16.90
2019-06-07T00:35:17.118Z,16.70
2019-06-07T00:37:25.177Z,16.60
2019-06-07T00:39:26.612Z,16.60
2019-06-07T00:41:30.791Z,16.60
2019-06-07T00:43:34.971Z,16.70
2019-06-07T00:45:39.130Z,16.60
2019-06-07T00:47:43.423Z,16.70
2019-06-07T00:49:47.672Z,16.70
2019-06-07T00:51:53.601Z,16.50
2019-06-07T00:53:57.864Z,16.40
2019-06-07T00:56:02.020Z,16.40
2019-06-07T00:58:06.303Z,16.50
2019-06-07T01:00:14.764Z,16.60
2019-06-07T01:02:21.464Z,16.60
2019-06-07T01:04:26.014Z,16.60
2019-06-07T01:06:30.485Z,16.50
2019-06-07T01:08:34.779Z,16.20
2019-06-07T01:10:52.817Z,16.30
2019-06-07T01:12:44.860Z,16.40
2019-06-07T01:14:49.048Z,16.50
2019-06-07T01:16:59.454Z,16.50
2019-06-07T01:18:59.132Z,16.50
2019-06-07T01:21:03.291Z,16.40
2019-06-07T01:23:52.029Z,16.20
2019-06-07T01:25:13.550Z,16.30
2019-06-07T01:27:19.022Z,16.40
2019-06-07T01:29:24.972Z,16.40
2019-06-07T01:31:31.507Z,16.40
2019-06-07T01:33:50.465Z,16.40
2019-06-07T01:35:41.508Z,16.30
2019-06-07T01:37:45.733Z,16.30
2019-06-07T01:39:49.912Z,16.30
2019-06-07T01:41:54.160Z,16.30
2019-06-07T01:43:59.018Z,16.30
2019-06-07T01:46:03.271Z,16.20
2019-06-07T01:48:07.441Z,16.20
2019-06-07T01:50:13.034Z,16.10
2019-06-07T01:52:19.405Z,16.00
2019-06-07T01:56:29.943Z,16.10
2019-06-07T01:58:34.240Z,16.10
2019-06-07T02:00:38.422Z,15.90
2019-06-07T02:02:42.685Z,15.80
2019-06-07T02:04:48.181Z,15.80
2019-06-07T02:06:52.616Z,15.80
2019-06-07T02:08:56.783Z,15.80
2019-06-07T02:11:00.955Z,15.80
2019-06-07T02:13:05.319Z,15.60
2019-06-07T02:15:09.890Z,15.80
2019-06-07T02:17:14.133Z,15.80
2019-06-07T02:19:19.428Z,15.80
2019-06-07T02:21:26.006Z,15.60
2019-06-07T02:23:31.652Z,15.60
2019-06-07T02:25:43.776Z,15.60
2019-06-07T02:27:41.783Z,15.60
2019-06-07T02:29:45.949Z,15.60
2019-06-07T02:31:50.140Z,15.70
2019-06-07T02:33:54.280Z,15.70
2019-06-07T02:35:58.519Z,15.70
2019-06-07T02:38:02.745Z,15.80
2019-06-07T02:40:07.352Z,15.80
2019-06-07T02:42:11.582Z,15.80
2019-06-07T02:44:15.746Z,15.80
2019-06-07T02:46:32.552Z,15.80
2019-06-07T02:48:35.322Z,15.80
2019-06-07T02:50:38.812Z,15.60
2019-06-07T02:52:42.362Z,15.50
2019-06-07T02:54:46.750Z,15.50
2019-06-07T02:56:58.146Z,15.60
2019-06-07T02:58:56.882Z,15.40
2019-06-07T03:01:08.364Z,15.50
2019-06-07T03:03:07.212Z,15.50
2019-06-07T03:05:12.829Z,15.50
2019-06-07T03:07:18.571Z,15.30
2019-06-07T03:09:22.719Z,15.30
2019-06-07T03:11:31.185Z,15.30
2019-06-07T03:13:40.787Z,15.30
2019-06-07T03:15:50.029Z,15.40
2019-06-07T03:18:03.456Z,15.20
2019-06-07T03:20:09.683Z,15.20
2019-06-07T03:22:13.865Z,15.30
2019-06-07T03:24:18.055Z,15.40
2019-06-07T03:26:23.736Z,15.40
2019-06-07T03:28:30.178Z,15.30
2019-06-07T03:30:46.948Z,15.10
2019-06-07T03:32:47.552Z,15.10
2019-06-07T03:34:47.281Z,15.10
2019-06-07T06:58:16.166Z,19.80
2019-06-07T07:00:43.096Z,19.70
2019-06-07T07:02:33.148Z,19.60
2019-06-07T07:04:37.400Z,19.60
2019-06-07T07:06:42.741Z,19.70
2019-06-07T07:08:48.239Z,19.80
2019-06-07T07:10:55.096Z,19.80
2019-06-07T07:12:59.215Z,19.90
2019-06-07T07:15:06.267Z,19.90
2019-06-07T07:17:10.708Z,20.20
2019-06-07T07:19:15.056Z,20.10
2019-06-07T07:21:19.267Z,20.30
2019-06-07T07:23:25.221Z,20.10
2019-06-07T07:25:29.427Z,20.20
2019-06-07T07:27:33.678Z,20.40
2019-06-07T07:29:37.857Z,20.60
2019-06-07T07:31:43.006Z,20.70
2019-06-07T07:36:18.511Z,21.10
2019-06-07T12:57:00.080Z,25.60
2019-06-07T12:59:04.537Z,26.00
2019-06-07T13:09:24.426Z,25.80
2019-06-07T13:11:31.545Z,25.80
2019-06-07T13:13:34.577Z,25.80
2019-06-07T13:15:38.801Z,26.00
2019-06-07T13:17:42.999Z,26.00
2019-06-07T13:19:47.198Z,25.90
2019-06-07T13:21:53.671Z,26.10
2019-06-07T13:23:57.867Z,26.40
2019-06-07T13:26:02.133Z,26.30
2019-06-07T13:28:06.567Z,26.10
2019-06-07T13:30:12.088Z,26.20
2019-06-07T13:32:17.433Z,26.20
2019-06-07T13:34:22.402Z,26.20
2019-06-07T13:36:28.558Z,26.40
2019-06-07T13:38:32.811Z,26.70
2019-06-07T13:40:37.005Z,27.10
2019-06-07T13:42:41.243Z,27.10
2019-06-07T13:44:45.455Z,27.50
2019-06-07T13:46:51.734Z,27.40
2019-06-07T13:48:55.887Z,27.60
2019-06-07T13:51:00.114Z,27.40
2019-06-07T13:53:04.283Z,27.30
2019-06-07T13:55:08.953Z,27.10
2019-06-07T13:57:15.107Z,26.90
2019-06-07T13:59:20.458Z,26.90
2019-06-07T14:01:24.759Z,26.60
2019-06-07T14:03:33.352Z,26.40
2019-06-07T14:05:34.854Z,26.30
2019-06-07T14:07:39.005Z,26.20
2019-06-07T14:09:43.168Z,26.20
2019-06-07T14:11:50.927Z,26.20
2019-06-07T14:13:53.852Z,26.30
2019-06-07T14:15:59.870Z,26.40
2019-06-07T14:18:04.085Z,26.60
2019-06-07T14:20:10.483Z,26.70
2019-06-07T14:22:15.139Z,26.90
2019-06-07T14:24:19.336Z,27.00
2019-06-07T14:26:23.530Z,26.90
2019-06-07T14:28:30.861Z,26.80
2019-06-07T14:30:35.473Z,27.10
2019-06-07T14:32:40.211Z,27.00
2019-06-07T14:34:45.540Z,27.40
2019-06-07T14:36:49.706Z,27.80
2019-06-07T14:38:53.885Z,28.70
2019-06-07T14:40:58.392Z,28.80
2019-06-07T14:43:02.762Z,28.70
2019-06-07T14:45:07.568Z,28.60
2019-06-07T14:47:14.757Z,29.10
2019-06-07T14:49:18.983Z,29.30
2019-06-07T14:51:24.183Z,30.00
2019-06-07T14:53:28.781Z,30.20
2019-06-07T14:55:33.125Z,30.40
2019-06-07T14:57:37.362Z,29.80
2019-06-07T14:59:41.681Z,29.90
2019-06-07T15:01:45.868Z,30.10
2019-06-07T15:03:50.044Z,29.90
2019-06-07T15:05:54.219Z,29.30
2019-06-07T15:07:58.427Z,29.10
2019-06-07T15:10:02.964Z,28.60
2019-06-07T15:12:07.159Z,28.10
2019-06-07T15:14:12.506Z,27.50
2019-06-07T15:16:17.712Z,27.10
2019-06-07T15:18:21.896Z,26.70
2019-06-07T15:20:26.071Z,26.40
2019-06-07T15:22:32.096Z,25.90
2019-06-07T15:24:40.630Z,25.70
2019-06-07T15:26:44.934Z,25.60
2019-06-07T15:28:49.222Z,25.80
2019-06-07T15:30:53.459Z,25.90
2019-06-07T15:32:59.771Z,25.80
2019-06-07T15:35:03.557Z,25.80
2019-06-07T15:37:07.785Z,25.80
2019-06-07T15:39:11.989Z,25.70
2019-06-07T15:41:16.270Z,25.60
2019-06-07T15:43:20.526Z,25.60
2019-06-07T15:45:24.776Z,25.70
2019-06-07T15:47:29.576Z,25.70
2019-06-07T15:49:38.124Z,25.80
2019-06-07T15:51:42.540Z,25.80
2019-06-07T15:53:46.705Z,25.70
2019-06-07T15:55:51.091Z,25.70
2019-06-07T15:57:55.466Z,25.60
2019-06-07T15:59:59.626Z,25.60
2019-06-07T16:02:04.051Z,25.50
2019-06-07T16:04:08.262Z,25.50
2019-06-07T16:06:12.472Z,25.50
2019-06-07T16:08:16.663Z,25.30
2019-06-07T16:10:20.965Z,25.20
2019-06-07T16:12:25.156Z,25.10
2019-06-07T16:14:29.356Z,25.00
2019-06-07T16:16:34.832Z,25.00
2019-06-07T16:18:39.788Z,25.00
2019-06-07T16:20:44.479Z,25.10
2019-06-07T16:22:48.729Z,25.20
2019-06-07T16:24:52.983Z,25.10
2019-06-07T16:26:57.179Z,25.20
2019-06-07T16:29:01.451Z,25.20
2019-06-07T16:31:05.747Z,25.30
2019-06-07T16:33:10.032Z,25.20
2019-06-07T16:35:14.824Z,25.00
2019-06-07T16:37:19.166Z,25.00
2019-06-07T16:39:23.327Z,25.00
2019-06-07T16:41:27.527Z,24.90
2019-06-07T16:43:31.752Z,24.90
2019-06-07T16:45:36.482Z,25.00
2019-06-07T16:47:43.766Z,24.80
2019-06-07T16:49:50.152Z,24.80
2019-06-07T16:51:54.415Z,24.80
2019-06-07T16:54:00.257Z,24.80
2019-06-07T16:56:06.136Z,24.90
2019-06-07T16:58:10.387Z,24.90
2019-06-07T17:00:16.041Z,25.00
2019-06-07T17:02:24.074Z,25.10
2019-06-07T17:04:28.288Z,25.00
2019-06-07T17:06:32.538Z,25.00
2019-06-07T17:08:37.923Z,25.00
2019-06-07T17:10:44.244Z,24.90
2019-06-07T17:12:50.667Z,24.80
2019-06-07T17:14:55.136Z,24.70
2019-06-07T17:16:59.291Z,24.80
2019-06-07T17:19:03.475Z,24.90
2019-06-07T17:21:07.664Z,24.80
2019-06-07T17:23:11.831Z,24.90
2019-06-07T17:25:17.654Z,24.90
2019-06-07T17:27:21.826Z,24.80
2019-06-07T17:29:26.444Z,24.70
2019-06-07T17:31:30.618Z,24.60
2019-06-07T17:33:34.833Z,24.70
2019-06-07T17:35:42.146Z,24.90
2019-06-07T17:37:49.142Z,24.80
2019-06-07T17:39:52.788Z,25.00
2019-06-07T17:42:02.154Z,25.00
2019-06-07T17:44:02.924Z,24.90
2019-06-07T17:46:07.351Z,25.00
2019-06-07T17:48:11.558Z,25.00
2019-06-07T17:50:17.090Z,25.00
2019-06-07T17:52:21.273Z,25.00
2019-06-07T17:54:25.447Z,25.00
2019-06-07T17:56:29.710Z,25.10
2019-06-07T17:58:36.548Z,24.90
2019-06-07T18:00:50.848Z,24.80
2019-06-07T18:02:55.761Z,24.80
2019-06-07T18:05:00.334Z,24.60
2019-06-07T18:07:04.518Z,24.70
2019-06-07T18:09:13.972Z,24.60
2019-06-07T18:11:17.027Z,24.60
